sensor_id;sensor_type;location;lat;lon;timestamp;P1;durP1;ratioP1;P2;durP2;ratioP2
37001;SDS011;22913;51.910;8.374;2023-03-13T00:01:58;19.23;;;5.63;;
37001;SDS011;22913;51.910;8.374;2023-03-13T00:04:44;14.63;;;4.70;;
37001;SDS011;22913;51.910;8.374;2023-03-13T00:07:29;17.43;;;4.87;;
37001;SDS011;22913;51.910;8.374;2023-03-13T00:10:16;17.23;;;4.67;;
37001;SDS011;22913;51.910;8.374;2023-03-13T00:13:01;15.00;;;5.07;;
37001;SDS011;22913;51.910;8.374;2023-03-13T00:15:49;18.13;;;4.80;;
37001;SDS011;22913;51.910;8.374;2023-03-13T00:18:43;12.77;;;4.30;;
37001;SDS011;22913;51.910;8.374;2023-03-13T00:21:30;15.53;;;4.63;;
37001;SDS011;22913;51.910;8.374;2023-03-13T00:24:16;13.93;;;4.30;;
37001;SDS011;22913;51.910;8.374;2023-03-13T00:27:02;13.33;;;4.83;;
37001;SDS011;22913;51.910;8.374;2023-03-13T00:29:49;17.80;;;4.97;;
37001;SDS011;22913;51.910;8.374;2023-03-13T00:32:40;11.07;;;4.27;;
37001;SDS011;22913;51.910;8.374;2023-03-13T00:35:26;18.13;;;4.87;;
37001;SDS011;22913;51.910;8.374;2023-03-13T00:38:12;19.00;;;5.07;;
37001;SDS011;22913;51.910;8.374;2023-03-13T00:40:58;16.07;;;4.50;;
37001;SDS011;22913;51.910;8.374;2023-03-13T00:43:45;16.77;;;4.70;;
37001;SDS011;22913;51.910;8.374;2023-03-13T00:46:31;14.30;;;4.73;;
37001;SDS011;22913;51.910;8.374;2023-03-13T00:49:19;16.13;;;4.30;;
37001;SDS011;22913;51.910;8.374;2023-03-13T00:52:05;17.90;;;4.63;;
37001;SDS011;22913;51.910;8.374;2023-03-13T00:54:50;25.40;;;4.90;;
37001;SDS011;22913;51.910;8.374;2023-03-13T00:57:36;19.37;;;4.73;;
37001;SDS011;22913;51.910;8.374;2023-03-13T01:00:22;13.57;;;4.20;;
37001;SDS011;22913;51.910;8.374;2023-03-13T01:03:08;16.70;;;4.60;;
37001;SDS011;22913;51.910;8.374;2023-03-13T01:05:55;16.10;;;4.57;;
37001;SDS011;22913;51.910;8.374;2023-03-13T01:08:41;15.07;;;4.33;;
37001;SDS011;22913;51.910;8.374;2023-03-13T01:11:27;12.80;;;4.57;;
37001;SDS011;22913;51.910;8.374;2023-03-13T01:14:15;15.67;;;4.73;;
37001;SDS011;22913;51.910;8.374;2023-03-13T01:17:02;15.93;;;4.07;;
37001;SDS011;22913;51.910;8.374;2023-03-13T01:19:48;17.17;;;4.40;;
37001;SDS011;22913;51.910;8.374;2023-03-13T01:22:35;13.53;;;3.87;;
37001;SDS011;22913;51.910;8.374;2023-03-13T01:25:21;10.00;;;3.50;;
37001;SDS011;22913;51.910;8.374;2023-03-13T01:28:06;17.63;;;4.57;;
37001;SDS011;22913;51.910;8.374;2023-03-13T01:30:52;14.07;;;3.73;;
37001;SDS011;22913;51.910;8.374;2023-03-13T01:33:38;15.23;;;4.40;;
37001;SDS011;22913;51.910;8.374;2023-03-13T01:36:23;14.17;;;4.27;;
37001;SDS011;22913;51.910;8.374;2023-03-13T01:39:11;14.07;;;4.20;;
37001;SDS011;22913;51.910;8.374;2023-03-13T01:41:57;13.70;;;4.47;;
37001;SDS011;22913;51.910;8.374;2023-03-13T01:44:48;16.77;;;3.70;;
37001;SDS011;22913;51.910;8.374;2023-03-13T01:47:34;13.57;;;4.30;;
37001;SDS011;22913;51.910;8.374;2023-03-13T01:50:20;13.47;;;3.97;;
37001;SDS011;22913;51.910;8.374;2023-03-13T01:53:05;18.80;;;4.77;;
37001;SDS011;22913;51.910;8.374;2023-03-13T01:55:53;15.07;;;4.43;;
37001;SDS011;22913;51.910;8.374;2023-03-13T01:58:39;15.87;;;4.23;;
37001;SDS011;22913;51.910;8.374;2023-03-13T02:01:25;16.17;;;3.73;;
37001;SDS011;22913;51.910;8.374;2023-03-13T02:04:12;18.00;;;4.90;;
37001;SDS011;22913;51.910;8.374;2023-03-13T02:07:00;13.73;;;3.83;;
37001;SDS011;22913;51.910;8.374;2023-03-13T02:09:49;12.97;;;3.70;;
37001;SDS011;22913;51.910;8.374;2023-03-13T02:12:41;13.30;;;4.37;;
37001;SDS011;22913;51.910;8.374;2023-03-13T02:15:26;15.53;;;4.10;;
37001;SDS011;22913;51.910;8.374;2023-03-13T02:18:12;16.03;;;4.70;;
37001;SDS011;22913;51.910;8.374;2023-03-13T02:21:04;13.30;;;3.50;;
37001;SDS011;22913;51.910;8.374;2023-03-13T02:23:56;16.60;;;4.63;;
37001;SDS011;22913;51.910;8.374;2023-03-13T02:26:48;12.83;;;4.03;;
37001;SDS011;22913;51.910;8.374;2023-03-13T02:29:33;16.50;;;4.07;;
37001;SDS011;22913;51.910;8.374;2023-03-13T02:32:19;14.93;;;4.13;;
37001;SDS011;22913;51.910;8.374;2023-03-13T02:35:07;15.27;;;4.13;;
37001;SDS011;22913;51.910;8.374;2023-03-13T02:37:54;14.53;;;4.00;;
37001;SDS011;22913;51.910;8.374;2023-03-13T02:40:44;16.80;;;4.20;;
37001;SDS011;22913;51.910;8.374;2023-03-13T02:43:33;12.60;;;3.73;;
37001;SDS011;22913;51.910;8.374;2023-03-13T02:46:20;16.90;;;4.27;;
37001;SDS011;22913;51.910;8.374;2023-03-13T02:49:09;16.10;;;3.77;;
37001;SDS011;22913;51.910;8.374;2023-03-13T02:52:06;13.83;;;3.73;;
37001;SDS011;22913;51.910;8.374;2023-03-13T02:54:57;14.87;;;4.30;;
37001;SDS011;22913;51.910;8.374;2023-03-13T02:57:46;16.17;;;3.80;;
37001;SDS011;22913;51.910;8.374;2023-03-13T03:00:33;15.30;;;4.13;;
37001;SDS011;22913;51.910;8.374;2023-03-13T03:03:19;14.03;;;4.17;;
37001;SDS011;22913;51.910;8.374;2023-03-13T03:06:05;18.57;;;4.33;;
37001;SDS011;22913;51.910;8.374;2023-03-13T03:08:51;12.13;;;4.43;;
37001;SDS011;22913;51.910;8.374;2023-03-13T03:11:37;12.30;;;3.63;;
37001;SDS011;22913;51.910;8.374;2023-03-13T03:14:22;18.87;;;4.33;;
37001;SDS011;22913;51.910;8.374;2023-03-13T03:17:09;17.10;;;4.17;;
37001;SDS011;22913;51.910;8.374;2023-03-13T03:19:55;14.70;;;4.17;;
37001;SDS011;22913;51.910;8.374;2023-03-13T03:22:41;14.73;;;4.10;;
37001;SDS011;22913;51.910;8.374;2023-03-13T03:25:26;13.40;;;4.10;;
37001;SDS011;22913;51.910;8.374;2023-03-13T03:28:12;17.43;;;3.80;;
37001;SDS011;22913;51.910;8.374;2023-03-13T03:31:02;18.47;;;4.63;;
37001;SDS011;22913;51.910;8.374;2023-03-13T03:33:49;12.03;;;4.00;;
37001;SDS011;22913;51.910;8.374;2023-03-13T03:36:35;15.70;;;3.93;;
37001;SDS011;22913;51.910;8.374;2023-03-13T03:39:20;11.43;;;3.80;;
37001;SDS011;22913;51.910;8.374;2023-03-13T03:42:06;11.87;;;3.13;;
37001;SDS011;22913;51.910;8.374;2023-03-13T03:44:52;18.27;;;4.07;;
37001;SDS011;22913;51.910;8.374;2023-03-13T03:47:38;17.70;;;3.63;;
37001;SDS011;22913;51.910;8.374;2023-03-13T03:50:25;8.13;;;3.43;;
37001;SDS011;22913;51.910;8.374;2023-03-13T03:53:10;15.17;;;3.57;;
37001;SDS011;22913;51.910;8.374;2023-03-13T03:55:56;14.43;;;3.30;;
37001;SDS011;22913;51.910;8.374;2023-03-13T03:58:42;14.77;;;3.50;;
37001;SDS011;22913;51.910;8.374;2023-03-13T04:01:27;8.00;;;3.30;;
37001;SDS011;22913;51.910;8.374;2023-03-13T04:04:13;10.80;;;3.10;;
37001;SDS011;22913;51.910;8.374;2023-03-13T04:07:00;8.93;;;3.10;;
37001;SDS011;22913;51.910;8.374;2023-03-13T04:09:45;11.73;;;3.30;;
37001;SDS011;22913;51.910;8.374;2023-03-13T04:12:31;12.03;;;2.77;;
37001;SDS011;22913;51.910;8.374;2023-03-13T04:15:16;8.83;;;3.10;;
37001;SDS011;22913;51.910;8.374;2023-03-13T04:18:02;8.73;;;2.53;;
37001;SDS011;22913;51.910;8.374;2023-03-13T04:20:48;9.60;;;3.07;;
37001;SDS011;22913;51.910;8.374;2023-03-13T04:23:35;7.13;;;2.87;;
37001;SDS011;22913;51.910;8.374;2023-03-13T04:26:20;6.93;;;3.13;;
37001;SDS011;22913;51.910;8.374;2023-03-13T04:29:07;9.60;;;3.33;;
37001;SDS011;22913;51.910;8.374;2023-03-13T04:31:53;8.20;;;2.17;;
37001;SDS011;22913;51.910;8.374;2023-03-13T04:34:39;8.13;;;2.27;;
37001;SDS011;22913;51.910;8.374;2023-03-13T04:37:24;7.80;;;2.43;;
37001;SDS011;22913;51.910;8.374;2023-03-13T04:40:12;4.03;;;2.23;;
37001;SDS011;22913;51.910;8.374;2023-03-13T04:42:57;5.33;;;2.00;;
37001;SDS011;22913;51.910;8.374;2023-03-13T04:45:43;3.17;;;1.90;;
37001;SDS011;22913;51.910;8.374;2023-03-13T04:48:29;5.17;;;2.07;;
37001;SDS011;22913;51.910;8.374;2023-03-13T04:51:14;4.20;;;1.73;;
37001;SDS011;22913;51.910;8.374;2023-03-13T04:54:00;5.90;;;1.67;;
37001;SDS011;22913;51.910;8.374;2023-03-13T04:56:47;5.90;;;1.53;;
37001;SDS011;22913;51.910;8.374;2023-03-13T04:59:33;2.70;;;1.40;;
37001;SDS011;22913;51.910;8.374;2023-03-13T05:02:18;3.77;;;1.57;;
37001;SDS011;22913;51.910;8.374;2023-03-13T05:05:04;5.20;;;1.60;;
37001;SDS011;22913;51.910;8.374;2023-03-13T05:07:49;3.33;;;1.60;;
37001;SDS011;22913;51.910;8.374;2023-03-13T05:10:35;2.50;;;1.50;;
37001;SDS011;22913;51.910;8.374;2023-03-13T05:13:22;4.57;;;1.73;;
37001;SDS011;22913;51.910;8.374;2023-03-13T05:16:08;4.33;;;2.10;;
37001;SDS011;22913;51.910;8.374;2023-03-13T05:18:53;4.93;;;2.07;;
37001;SDS011;22913;51.910;8.374;2023-03-13T05:21:39;2.07;;;1.97;;
37001;SDS011;22913;51.910;8.374;2023-03-13T05:24:25;3.43;;;1.90;;
37001;SDS011;22913;51.910;8.374;2023-03-13T05:27:11;1.70;;;1.37;;
37001;SDS011;22913;51.910;8.374;2023-03-13T05:29:58;3.47;;;1.80;;
37001;SDS011;22913;51.910;8.374;2023-03-13T05:32:44;3.47;;;1.60;;
37001;SDS011;22913;51.910;8.374;2023-03-13T05:35:29;4.30;;;1.93;;
37001;SDS011;22913;51.910;8.374;2023-03-13T05:38:15;4.17;;;1.57;;
37001;SDS011;22913;51.910;8.374;2023-03-13T05:41:01;4.07;;;2.30;;
37001;SDS011;22913;51.910;8.374;2023-03-13T05:43:47;2.73;;;1.60;;
37001;SDS011;22913;51.910;8.374;2023-03-13T05:46:34;1.93;;;1.50;;
37001;SDS011;22913;51.910;8.374;2023-03-13T05:49:20;3.63;;;1.83;;
37001;SDS011;22913;51.910;8.374;2023-03-13T05:52:05;2.07;;;1.53;;
37001;SDS011;22913;51.910;8.374;2023-03-13T05:54:51;4.00;;;2.00;;
37001;SDS011;22913;51.910;8.374;2023-03-13T05:57:37;2.07;;;1.50;;
37001;SDS011;22913;51.910;8.374;2023-03-13T06:00:23;2.57;;;1.70;;
37001;SDS011;22913;51.910;8.374;2023-03-13T06:03:10;1.50;;;1.40;;
37001;SDS011;22913;51.910;8.374;2023-03-13T06:05:56;4.17;;;1.80;;
37001;SDS011;22913;51.910;8.374;2023-03-13T06:08:42;1.90;;;1.60;;
37001;SDS011;22913;51.910;8.374;2023-03-13T06:11:27;2.00;;;1.77;;
37001;SDS011;22913;51.910;8.374;2023-03-13T06:14:13;1.87;;;1.67;;
37001;SDS011;22913;51.910;8.374;2023-03-13T06:16:59;4.57;;;2.57;;
37001;SDS011;22913;51.910;8.374;2023-03-13T06:19:46;2.20;;;2.10;;
37001;SDS011;22913;51.910;8.374;2023-03-13T06:22:32;4.10;;;2.57;;
37001;SDS011;22913;51.910;8.374;2023-03-13T06:25:18;2.50;;;2.10;;
37001;SDS011;22913;51.910;8.374;2023-03-13T06:28:03;2.27;;;2.13;;
37001;SDS011;22913;51.910;8.374;2023-03-13T06:30:49;2.50;;;2.30;;
37001;SDS011;22913;51.910;8.374;2023-03-13T06:33:34;2.73;;;2.53;;
37001;SDS011;22913;51.910;8.374;2023-03-13T06:36:22;3.33;;;2.23;;
37001;SDS011;22913;51.910;8.374;2023-03-13T06:39:08;3.43;;;2.63;;
37001;SDS011;22913;51.910;8.374;2023-03-13T06:41:54;2.23;;;2.03;;
37001;SDS011;22913;51.910;8.374;2023-03-13T06:44:39;4.60;;;2.80;;
37001;SDS011;22913;51.910;8.374;2023-03-13T06:47:25;4.50;;;2.30;;
37001;SDS011;22913;51.910;8.374;2023-03-13T06:50:11;2.73;;;2.53;;
37001;SDS011;22913;51.910;8.374;2023-03-13T06:52:57;2.90;;;2.20;;
37001;SDS011;22913;51.910;8.374;2023-03-13T06:55:43;2.53;;;2.37;;
37001;SDS011;22913;51.910;8.374;2023-03-13T06:58:29;3.47;;;2.50;;
37001;SDS011;22913;51.910;8.374;2023-03-13T07:01:15;2.67;;;2.47;;
37001;SDS011;22913;51.910;8.374;2023-03-13T07:04:02;2.83;;;2.53;;
37001;SDS011;22913;51.910;8.374;2023-03-13T07:06:47;4.93;;;2.60;;
37001;SDS011;22913;51.910;8.374;2023-03-13T07:09:36;2.90;;;2.70;;
37001;SDS011;22913;51.910;8.374;2023-03-13T07:12:21;3.43;;;2.80;;
37001;SDS011;22913;51.910;8.374;2023-03-13T07:15:07;3.50;;;2.90;;
37001;SDS011;22913;51.910;8.374;2023-03-13T07:17:55;3.60;;;2.70;;
37001;SDS011;22913;51.910;8.374;2023-03-13T07:20:41;2.60;;;2.40;;
37001;SDS011;22913;51.910;8.374;2023-03-13T07:23:27;2.40;;;2.30;;
37001;SDS011;22913;51.910;8.374;2023-03-13T07:26:15;3.70;;;2.83;;
37001;SDS011;22913;51.910;8.374;2023-03-13T07:29:01;2.73;;;2.30;;
37001;SDS011;22913;51.910;8.374;2023-03-13T07:31:47;3.23;;;2.47;;
37001;SDS011;22913;51.910;8.374;2023-03-13T07:34:32;2.60;;;2.40;;
37001;SDS011;22913;51.910;8.374;2023-03-13T07:37:18;2.63;;;2.43;;
37001;SDS011;22913;51.910;8.374;2023-03-13T07:40:04;4.73;;;2.40;;
37001;SDS011;22913;51.910;8.374;2023-03-13T07:42:53;2.40;;;2.20;;
37001;SDS011;22913;51.910;8.374;2023-03-13T07:45:39;2.40;;;2.23;;
37001;SDS011;22913;51.910;8.374;2023-03-13T07:48:34;2.20;;;2.10;;
37001;SDS011;22913;51.910;8.374;2023-03-13T07:51:23;2.60;;;2.40;;
37001;SDS011;22913;51.910;8.374;2023-03-13T07:54:10;2.77;;;2.07;;
37001;SDS011;22913;51.910;8.374;2023-03-13T07:56:55;2.63;;;2.43;;
37001;SDS011;22913;51.910;8.374;2023-03-13T07:59:43;2.50;;;2.13;;
37001;SDS011;22913;51.910;8.374;2023-03-13T08:02:28;4.97;;;1.93;;
37001;SDS011;22913;51.910;8.374;2023-03-13T08:05:14;2.33;;;2.10;;
37001;SDS011;22913;51.910;8.374;2023-03-13T08:07:59;2.83;;;1.80;;
37001;SDS011;22913;51.910;8.374;2023-03-13T08:10:45;2.13;;;1.73;;
37001;SDS011;22913;51.910;8.374;2023-03-13T08:13:31;2.20;;;1.90;;
37001;SDS011;22913;51.910;8.374;2023-03-13T08:16:20;2.10;;;1.90;;
37001;SDS011;22913;51.910;8.374;2023-03-13T08:19:07;2.00;;;1.80;;
37001;SDS011;22913;51.910;8.374;2023-03-13T08:21:54;1.77;;;1.67;;
37001;SDS011;22913;51.910;8.374;2023-03-13T08:24:39;2.17;;;1.50;;
37001;SDS011;22913;51.910;8.374;2023-03-13T08:27:25;2.87;;;1.90;;
37001;SDS011;22913;51.910;8.374;2023-03-13T08:30:13;2.53;;;1.43;;
37001;SDS011;22913;51.910;8.374;2023-03-13T08:33:01;3.50;;;2.10;;
37001;SDS011;22913;51.910;8.374;2023-03-13T08:35:47;2.67;;;1.80;;
37001;SDS011;22913;51.910;8.374;2023-03-13T08:38:32;2.97;;;1.80;;
37001;SDS011;22913;51.910;8.374;2023-03-13T08:41:19;2.10;;;1.90;;
37001;SDS011;22913;51.910;8.374;2023-03-13T08:44:06;1.80;;;1.70;;
37001;SDS011;22913;51.910;8.374;2023-03-13T08:46:53;3.60;;;1.80;;
37001;SDS011;22913;51.910;8.374;2023-03-13T08:49:41;3.13;;;1.83;;
37001;SDS011;22913;51.910;8.374;2023-03-13T08:52:26;2.70;;;2.13;;
37001;SDS011;22913;51.910;8.374;2023-03-13T08:55:12;2.93;;;1.70;;
37001;SDS011;22913;51.910;8.374;2023-03-13T08:57:57;3.17;;;2.00;;
37001;SDS011;22913;51.910;8.374;2023-03-13T09:00:43;2.07;;;1.60;;
37001;SDS011;22913;51.910;8.374;2023-03-13T09:03:29;2.17;;;1.80;;
37001;SDS011;22913;51.910;8.374;2023-03-13T09:06:17;3.47;;;1.70;;
37001;SDS011;22913;51.910;8.374;2023-03-13T09:09:03;4.83;;;1.80;;
37001;SDS011;22913;51.910;8.374;2023-03-13T09:11:50;3.30;;;2.00;;
37001;SDS011;22913;51.910;8.374;2023-03-13T09:14:36;5.37;;;2.10;;
37001;SDS011;22913;51.910;8.374;2023-03-13T09:17:22;3.67;;;2.07;;
37001;SDS011;22913;51.910;8.374;2023-03-13T09:20:09;3.07;;;2.10;;
37001;SDS011;22913;51.910;8.374;2023-03-13T09:22:56;2.53;;;2.00;;
37001;SDS011;22913;51.910;8.374;2023-03-13T09:25:42;4.37;;;2.23;;
37001;SDS011;22913;51.910;8.374;2023-03-13T09:28:27;3.43;;;2.20;;
37001;SDS011;22913;51.910;8.374;2023-03-13T09:31:14;3.37;;;2.10;;
37001;SDS011;22913;51.910;8.374;2023-03-13T09:34:00;3.13;;;1.93;;
37001;SDS011;22913;51.910;8.374;2023-03-13T09:36:46;4.87;;;2.40;;
37001;SDS011;22913;51.910;8.374;2023-03-13T09:39:33;2.80;;;1.97;;
37001;SDS011;22913;51.910;8.374;2023-03-13T09:42:19;4.40;;;2.40;;
37001;SDS011;22913;51.910;8.374;2023-03-13T09:45:20;2.83;;;2.00;;
37001;SDS011;22913;51.910;8.374;2023-03-13T09:48:17;5.87;;;3.17;;
37001;SDS011;22913;51.910;8.374;2023-03-13T09:51:14;7.20;;;2.40;;
37001;SDS011;22913;51.910;8.374;2023-03-13T09:54:04;3.83;;;2.40;;
37001;SDS011;22913;51.910;8.374;2023-03-13T09:56:54;3.23;;;2.20;;
37001;SDS011;22913;51.910;8.374;2023-03-13T09:59:44;2.83;;;2.33;;
37001;SDS011;22913;51.910;8.374;2023-03-13T10:02:35;8.00;;;2.90;;
37001;SDS011;22913;51.910;8.374;2023-03-13T10:05:22;4.40;;;2.70;;
37001;SDS011;22913;51.910;8.374;2023-03-13T10:08:11;4.20;;;2.27;;
37001;SDS011;22913;51.910;8.374;2023-03-13T10:11:02;2.87;;;2.60;;
37001;SDS011;22913;51.910;8.374;2023-03-13T10:13:52;3.50;;;2.20;;
37001;SDS011;22913;51.910;8.374;2023-03-13T10:16:43;3.03;;;2.30;;
37001;SDS011;22913;51.910;8.374;2023-03-13T10:19:33;3.20;;;2.07;;
37001;SDS011;22913;51.910;8.374;2023-03-13T10:22:23;3.83;;;2.27;;
37001;SDS011;22913;51.910;8.374;2023-03-13T10:25:11;4.60;;;2.40;;
37001;SDS011;22913;51.910;8.374;2023-03-13T10:28:10;5.37;;;2.13;;
37001;SDS011;22913;51.910;8.374;2023-03-13T10:31:00;5.07;;;2.50;;
37001;SDS011;22913;51.910;8.374;2023-03-13T10:33:49;3.33;;;2.03;;
37001;SDS011;22913;51.910;8.374;2023-03-13T10:36:39;4.30;;;2.37;;
37001;SDS011;22913;51.910;8.374;2023-03-13T10:39:26;6.13;;;2.40;;
37001;SDS011;22913;51.910;8.374;2023-03-13T10:42:17;4.07;;;2.80;;
37001;SDS011;22913;51.910;8.374;2023-03-13T10:45:13;5.13;;;1.90;;
37001;SDS011;22913;51.910;8.374;2023-03-13T10:48:03;5.53;;;1.93;;
37001;SDS011;22913;51.910;8.374;2023-03-13T10:50:55;3.50;;;2.03;;
37001;SDS011;22913;51.910;8.374;2023-03-13T10:53:41;3.37;;;1.93;;
37001;SDS011;22913;51.910;8.374;2023-03-13T10:56:28;3.63;;;2.03;;
37001;SDS011;22913;51.910;8.374;2023-03-13T10:59:18;3.63;;;2.10;;
37001;SDS011;22913;51.910;8.374;2023-03-13T11:02:16;3.97;;;2.10;;
37001;SDS011;22913;51.910;8.374;2023-03-13T11:08:21;2.47;;;1.80;;
37001;SDS011;22913;51.910;8.374;2023-03-13T11:11:15;3.17;;;1.90;;
37001;SDS011;22913;51.910;8.374;2023-03-13T11:14:06;4.10;;;1.93;;
37001;SDS011;22913;51.910;8.374;2023-03-13T11:16:53;4.33;;;2.17;;
37001;SDS011;22913;51.910;8.374;2023-03-13T11:19:50;2.13;;;1.63;;
37001;SDS011;22913;51.910;8.374;2023-03-13T11:22:46;3.17;;;2.10;;
37001;SDS011;22913;51.910;8.374;2023-03-13T11:25:38;5.43;;;1.97;;
37001;SDS011;22913;51.910;8.374;2023-03-13T11:28:28;6.90;;;2.30;;
37001;SDS011;22913;51.910;8.374;2023-03-13T11:31:28;2.63;;;1.63;;
37001;SDS011;22913;51.910;8.374;2023-03-13T11:34:18;3.77;;;1.83;;
37001;SDS011;22913;51.910;8.374;2023-03-13T11:37:10;2.23;;;1.90;;
37001;SDS011;22913;51.910;8.374;2023-03-13T11:40:01;2.17;;;1.70;;
37001;SDS011;22913;51.910;8.374;2023-03-13T11:42:57;2.10;;;1.70;;
37001;SDS011;22913;51.910;8.374;2023-03-13T11:46:07;2.57;;;1.30;;
37001;SDS011;22913;51.910;8.374;2023-03-13T11:49:18;1.80;;;1.67;;
37001;SDS011;22913;51.910;8.374;2023-03-13T11:52:21;1.67;;;1.57;;
37001;SDS011;22913;51.910;8.374;2023-03-13T11:55:19;1.97;;;1.60;;
37001;SDS011;22913;51.910;8.374;2023-03-13T11:58:33;2.60;;;1.50;;
37001;SDS011;22913;51.910;8.374;2023-03-13T12:01:29;1.87;;;1.57;;
37001;SDS011;22913;51.910;8.374;2023-03-13T12:04:19;2.97;;;1.40;;
37001;SDS011;22913;51.910;8.374;2023-03-13T12:07:14;3.37;;;1.73;;
37001;SDS011;22913;51.910;8.374;2023-03-13T12:10:08;1.37;;;1.27;;
37001;SDS011;22913;51.910;8.374;2023-03-13T12:12:59;2.00;;;1.43;;
37001;SDS011;22913;51.910;8.374;2023-03-13T12:15:50;2.00;;;1.10;;
37001;SDS011;22913;51.910;8.374;2023-03-13T12:18:39;1.30;;;1.20;;
37001;SDS011;22913;51.910;8.374;2023-03-13T12:21:27;2.00;;;1.43;;
37001;SDS011;22913;51.910;8.374;2023-03-13T12:24:18;3.00;;;1.20;;
37001;SDS011;22913;51.910;8.374;2023-03-13T12:27:10;1.90;;;0.93;;
37001;SDS011;22913;51.910;8.374;2023-03-13T12:30:04;1.47;;;0.93;;
37001;SDS011;22913;51.910;8.374;2023-03-13T12:33:00;1.00;;;0.90;;
37001;SDS011;22913;51.910;8.374;2023-03-13T12:35:51;0.93;;;0.90;;
37001;SDS011;22913;51.910;8.374;2023-03-13T12:38:45;1.33;;;0.80;;
37001;SDS011;22913;51.910;8.374;2023-03-13T12:41:36;3.93;;;1.17;;
37001;SDS011;22913;51.910;8.374;2023-03-13T12:44:26;1.10;;;1.00;;
37001;SDS011;22913;51.910;8.374;2023-03-13T12:47:16;1.60;;;0.70;;
37001;SDS011;22913;51.910;8.374;2023-03-13T12:50:23;0.90;;;0.90;;
37001;SDS011;22913;51.910;8.374;2023-03-13T12:53:23;0.90;;;0.90;;
37001;SDS011;22913;51.910;8.374;2023-03-13T12:56:30;1.77;;;0.80;;
37001;SDS011;22913;51.910;8.374;2023-03-13T12:59:25;2.60;;;0.97;;
37001;SDS011;22913;51.910;8.374;2023-03-13T13:02:18;1.03;;;1.00;;
37001;SDS011;22913;51.910;8.374;2023-03-13T13:05:16;1.60;;;1.00;;
37001;SDS011;22913;51.910;8.374;2023-03-13T13:08:03;2.33;;;0.80;;
37001;SDS011;22913;51.910;8.374;2023-03-13T13:10:49;3.77;;;1.10;;
37001;SDS011;22913;51.910;8.374;2023-03-13T13:13:35;1.57;;;1.00;;
37001;SDS011;22913;51.910;8.374;2023-03-13T13:16:23;0.80;;;0.80;;
37001;SDS011;22913;51.910;8.374;2023-03-13T13:22:45;3.43;;;1.00;;
37001;SDS011;22913;51.910;8.374;2023-03-13T13:25:33;1.20;;;0.70;;
37001;SDS011;22913;51.910;8.374;2023-03-13T13:28:23;1.00;;;1.00;;
37001;SDS011;22913;51.910;8.374;2023-03-13T13:34:58;1.70;;;0.90;;
37001;SDS011;22913;51.910;8.374;2023-03-13T13:37:49;2.40;;;0.80;;
37001;SDS011;22913;51.910;8.374;2023-03-13T13:40:35;0.90;;;0.90;;
37001;SDS011;22913;51.910;8.374;2023-03-13T13:43:21;0.80;;;0.80;;
37001;SDS011;22913;51.910;8.374;2023-03-13T13:46:15;1.10;;;1.00;;
37001;SDS011;22913;51.910;8.374;2023-03-13T13:49:10;1.10;;;1.00;;
37001;SDS011;22913;51.910;8.374;2023-03-13T13:52:29;1.03;;;0.90;;
37001;SDS011;22913;51.910;8.374;2023-03-13T13:55:30;2.20;;;1.07;;
37001;SDS011;22913;51.910;8.374;2023-03-13T13:58:26;1.10;;;1.00;;
37001;SDS011;22913;51.910;8.374;2023-03-13T14:01:15;1.43;;;0.70;;
37001;SDS011;22913;51.910;8.374;2023-03-13T14:04:06;2.73;;;0.90;;
37001;SDS011;22913;51.910;8.374;2023-03-13T14:06:58;1.10;;;1.00;;
37001;SDS011;22913;51.910;8.374;2023-03-13T14:09:49;2.37;;;1.13;;
37001;SDS011;22913;51.910;8.374;2023-03-13T14:12:44;1.57;;;0.80;;
37001;SDS011;22913;51.910;8.374;2023-03-13T14:15:35;1.03;;;0.80;;
37001;SDS011;22913;51.910;8.374;2023-03-13T14:18:21;2.53;;;0.93;;
37001;SDS011;22913;51.910;8.374;2023-03-13T14:21:09;2.97;;;0.93;;
37001;SDS011;22913;51.910;8.374;2023-03-13T14:23:57;1.23;;;0.97;;
37001;SDS011;22913;51.910;8.374;2023-03-13T14:26:44;0.90;;;0.73;;
37001;SDS011;22913;51.910;8.374;2023-03-13T14:29:31;1.23;;;0.90;;
37001;SDS011;22913;51.910;8.374;2023-03-13T14:32:16;0.87;;;0.80;;
37001;SDS011;22913;51.910;8.374;2023-03-13T14:35:03;1.60;;;1.10;;
37001;SDS011;22913;51.910;8.374;2023-03-13T14:37:50;2.47;;;0.97;;
37001;SDS011;22913;51.910;8.374;2023-03-13T14:40:37;1.73;;;1.07;;
37001;SDS011;22913;51.910;8.374;2023-03-13T14:43:27;1.27;;;1.10;;
37001;SDS011;22913;51.910;8.374;2023-03-13T14:46:19;1.87;;;1.10;;
37001;SDS011;22913;51.910;8.374;2023-03-13T14:49:14;1.30;;;1.20;;
37001;SDS011;22913;51.910;8.374;2023-03-13T14:52:02;1.90;;;1.17;;
37001;SDS011;22913;51.910;8.374;2023-03-13T14:54:51;0.97;;;0.90;;
37001;SDS011;22913;51.910;8.374;2023-03-13T14:57:39;2.80;;;1.37;;
37001;SDS011;22913;51.910;8.374;2023-03-13T15:00:41;1.63;;;1.13;;
37001;SDS011;22913;51.910;8.374;2023-03-13T15:03:29;0.80;;;0.80;;
37001;SDS011;22913;51.910;8.374;2023-03-13T15:06:16;0.80;;;0.80;;
37001;SDS011;22913;51.910;8.374;2023-03-13T15:09:14;2.57;;;1.10;;
37001;SDS011;22913;51.910;8.374;2023-03-13T15:12:02;2.30;;;0.90;;
37001;SDS011;22913;51.910;8.374;2023-03-13T15:14:49;1.63;;;0.90;;
37001;SDS011;22913;51.910;8.374;2023-03-13T15:17:37;1.00;;;0.90;;
37001;SDS011;22913;51.910;8.374;2023-03-13T15:20:23;1.23;;;1.00;;
37001;SDS011;22913;51.910;8.374;2023-03-13T15:23:09;2.00;;;1.10;;
37001;SDS011;22913;51.910;8.374;2023-03-13T15:25:57;1.33;;;1.07;;
37001;SDS011;22913;51.910;8.374;2023-03-13T15:28:43;1.97;;;1.13;;
37001;SDS011;22913;51.910;8.374;2023-03-13T15:31:29;1.90;;;1.00;;
37001;SDS011;22913;51.910;8.374;2023-03-13T15:34:16;3.63;;;1.30;;
37001;SDS011;22913;51.910;8.374;2023-03-13T15:37:09;1.33;;;0.93;;
37001;SDS011;22913;51.910;8.374;2023-03-13T15:39:56;0.83;;;0.83;;
37001;SDS011;22913;51.910;8.374;2023-03-13T15:42:42;0.83;;;0.83;;
37001;SDS011;22913;51.910;8.374;2023-03-13T15:45:28;2.43;;;1.00;;
37001;SDS011;22913;51.910;8.374;2023-03-13T15:48:14;1.53;;;1.00;;
37001;SDS011;22913;51.910;8.374;2023-03-13T15:51:03;2.57;;;1.10;;
37001;SDS011;22913;51.910;8.374;2023-03-13T15:53:49;1.53;;;1.00;;
37001;SDS011;22913;51.910;8.374;2023-03-13T15:56:36;2.40;;;0.80;;
37001;SDS011;22913;51.910;8.374;2023-03-13T15:59:22;3.07;;;1.30;;
37001;SDS011;22913;51.910;8.374;2023-03-13T16:02:11;1.10;;;1.10;;
37001;SDS011;22913;51.910;8.374;2023-03-13T16:04:59;2.10;;;1.03;;
37001;SDS011;22913;51.910;8.374;2023-03-13T16:07:46;1.20;;;1.10;;
37001;SDS011;22913;51.910;8.374;2023-03-13T16:10:31;1.60;;;1.50;;
37001;SDS011;22913;51.910;8.374;2023-03-13T16:13:17;2.13;;;1.00;;
37001;SDS011;22913;51.910;8.374;2023-03-13T16:16:05;3.10;;;1.03;;
37001;SDS011;22913;51.910;8.374;2023-03-13T16:19:00;2.67;;;0.97;;
37001;SDS011;22913;51.910;8.374;2023-03-13T16:21:46;1.20;;;1.10;;
37001;SDS011;22913;51.910;8.374;2023-03-13T16:24:34;1.10;;;1.10;;
37001;SDS011;22913;51.910;8.374;2023-03-13T16:27:20;1.10;;;1.07;;
37001;SDS011;22913;51.910;8.374;2023-03-13T16:30:11;1.80;;;1.20;;
37001;SDS011;22913;51.910;8.374;2023-03-13T16:33:02;1.20;;;1.10;;
37001;SDS011;22913;51.910;8.374;2023-03-13T16:35:47;1.10;;;0.90;;
37001;SDS011;22913;51.910;8.374;2023-03-13T16:38:35;2.90;;;1.00;;
37001;SDS011;22913;51.910;8.374;2023-03-13T16:41:22;1.77;;;1.00;;
37001;SDS011;22913;51.910;8.374;2023-03-13T16:44:09;1.30;;;1.20;;
37001;SDS011;22913;51.910;8.374;2023-03-13T16:46:54;1.57;;;1.07;;
37001;SDS011;22913;51.910;8.374;2023-03-13T16:49:40;2.60;;;1.50;;
37001;SDS011;22913;51.910;8.374;2023-03-13T16:52:26;2.57;;;1.20;;
37001;SDS011;22913;51.910;8.374;2023-03-13T16:55:12;1.00;;;1.00;;
37001;SDS011;22913;51.910;8.374;2023-03-13T16:57:59;1.13;;;1.13;;
37001;SDS011;22913;51.910;8.374;2023-03-13T17:00:45;1.93;;;1.20;;
37001;SDS011;22913;51.910;8.374;2023-03-13T17:03:31;1.67;;;1.20;;